Time;durP1;ratioP1;P1;durP2;ratioP2;P2;SDS_P1;SDS_P2;PMS_P1;PMS_P2;Temp;Humidity;BMP_temperature;BMP_pressure;BME280_temperature;BME280_humidity;BME280_pressure;Samples;Min_cycle;Max_cycle;Signal;HPM_P1;HPM_P2
2022/04/21 00:01:39;;;;;;;12.35;7.93;;;8.30;99.90;;;;;;5072449;28;20076;-63
2022/04/21 00:04:05;;;;;;;10.95;7.25;;;8.30;99.90;;;;;;5072393;28;20047;-63
2022/04/21 00:06:30;;;;;;;11.23;7.53;;;8.30;99.90;;;;;;5072486;28;20049;-63
2022/04/21 00:08:56;;;;;;;12.23;7.80;;;8.40;99.90;;;;;;5072566;28;20444;-64
2022/04/21 00:11:22;;;;;;;12.85;7.40;;;8.30;99.90;;;;;;5054834;28;20054;-64
2022/04/21 00:13:47;;;;;;;11.70;7.85;;;8.40;99.90;;;;;;5071904;28;20086;-63
2022/04/21 00:16:13;;;;;;;12.40;8.15;;;8.30;99.90;;;;;;5070943;28;20503;-63
2022/04/21 00:18:39;;;;;;;10.95;7.90;;;8.30;99.90;;;;;;5070581;28;20044;-63
2022/04/21 00:21:05;;;;;;;11.20;7.57;;;8.30;99.90;;;;;;5072318;28;20040;-63
2022/04/21 00:23:32;;;;;;;11.15;7.82;;;8.30;99.90;;;;;;5072218;28;20047;-63
2022/04/21 00:26:00;;;;;;;14.93;8.77;;;8.30;99.90;;;;;;5071751;28;20051;-63
2022/04/21 00:28:29;;;;;;;11.65;8.02;;;8.30;99.90;;;;;;5072132;28;20060;-64
2022/04/21 00:30:55;;;;;;;12.23;7.72;;;8.40;99.90;;;;;;5071868;28;20141;-63
2022/04/21 00:33:21;;;;;;;12.90;8.63;;;8.20;99.90;;;;;;5070963;28;20395;-64
2022/04/21 00:35:47;;;;;;;11.95;8.13;;;8.20;99.90;;;;;;5071700;28;20070;-62
2022/04/21 00:38:13;;;;;;;12.90;8.80;;;8.20;99.90;;;;;;5071620;28;20102;-63
2022/04/21 00:40:39;;;;;;;13.50;8.38;;;8.20;99.90;;;;;;5071512;28;20059;-63
2022/04/21 00:43:05;;;;;;;13.05;8.57;;;8.10;99.90;;;;;;5071839;28;20097;-64
2022/04/21 00:45:32;;;;;;;12.35;8.25;;;8.00;99.90;;;;;;5071713;28;20137;-65
2022/04/21 00:47:58;;;;;;;13.77;8.85;;;7.90;99.90;;;;;;5070194;28;20304;-64
2022/04/21 00:50:28;;;;;;;13.77;8.50;;;8.00;99.90;;;;;;5071935;28;20052;-64
2022/04/21 00:52:55;;;;;;;14.32;9.60;;;7.90;99.90;;;;;;5070139;28;20494;-63
2022/04/21 00:55:22;;;;;;;15.07;10.02;;;7.90;99.90;;;;;;5072065;28;20056;-62
2022/04/21 00:57:49;;;;;;;13.77;9.20;;;7.90;99.90;;;;;;5071161;28;20059;-62
2022/04/21 01:00:16;;;;;;;15.95;9.32;;;7.90;99.90;;;;;;5070596;28;20059;-63
2022/04/21 01:02:52;;;;;;;14.80;9.82;;;7.90;99.90;;;;;;5071215;28;20084;-63
2022/04/21 01:05:30;;;;;;;13.73;10.00;;;7.90;99.90;;;;;;5071389;28;20080;-63
2022/04/21 01:08:07;;;;;;;15.82;10.13;;;7.80;99.90;;;;;;5069813;28;20053;-63
2022/04/21 01:10:34;;;;;;;14.15;9.40;;;7.80;99.90;;;;;;5070465;28;20529;-64
2022/04/21 01:13:04;;;;;;;14.98;9.75;;;7.80;99.90;;;;;;5069878;28;20482;-65
2022/04/21 01:15:29;;;;;;;15.27;10.30;;;7.80;99.90;;;;;;5071651;28;20127;-64
2022/04/21 01:17:55;;;;;;;17.05;10.38;;;7.80;99.90;;;;;;5071346;28;20529;-63
2022/04/21 01:20:25;;;;;;;14.13;10.65;;;7.90;99.90;;;;;;5071778;28;20044;-63
2022/04/21 01:22:52;;;;;;;16.88;10.93;;;7.80;99.90;;;;;;5069479;28;20489;-63
2022/04/21 01:25:19;;;;;;;14.27;10.43;;;7.80;99.90;;;;;;5070266;28;20044;-62
2022/04/21 01:27:47;;;;;;;15.60;11.00;;;7.70;99.90;;;;;;5070960;28;20076;-63
2022/04/21 01:30:14;;;;;;;16.73;11.48;;;7.80;99.90;;;;;;5071370;28;20051;-64
2022/04/21 01:32:44;;;;;;;14.77;10.52;;;7.80;99.90;;;;;;5071332;28;20044;-64
2022/04/21 01:35:11;;;;;;;15.00;10.68;;;7.70;99.90;;;;;;5070321;28;20124;-64
2022/04/21 01:43:06;;;;;;;18.40;11.80;;;7.70;99.90;;;;;;5070868;28;20095;-63
2022/04/21 01:45:33;;;;;;;17.90;11.82;;;7.70;99.90;;;;;;5073117;28;20465;-64
2022/04/21 01:47:59;;;;;;;15.35;10.63;;;7.60;99.90;;;;;;5073786;28;20097;-63
2022/04/21 01:50:26;;;;;;;16.80;11.77;;;7.60;99.90;;;;;;5075478;28;20498;-63
2022/04/21 01:52:52;;;;;;;15.70;11.75;;;7.60;99.90;;;;;;5075006;28;20378;-62
2022/04/21 01:55:18;;;;;;;16.08;11.95;;;7.60;99.90;;;;;;5075502;28;20056;-63
2022/04/21 01:57:44;;;;;;;18.00;12.65;;;7.50;99.90;;;;;;5075126;28;20045;-63
2022/04/21 02:00:10;;;;;;;15.98;11.73;;;7.50;99.90;;;;;;5074668;28;20075;-63
2022/04/21 02:02:36;;;;;;;19.38;11.65;;;7.50;99.90;;;;;;5073951;28;20045;-62
2022/04/21 02:05:02;;;;;;;17.88;12.07;;;7.50;99.90;;;;;;5074516;28;20052;-62
2022/04/21 02:07:28;;;;;;;15.98;11.32;;;7.40;99.90;;;;;;5073870;28;20527;-63
2022/04/21 02:09:55;;;;;;;17.35;12.23;;;7.50;99.90;;;;;;5074246;28;20051;-64
2022/04/21 02:12:23;;;;;;;14.90;11.25;;;7.50;99.90;;;;;;5074887;28;20106;-63
2022/04/21 02:14:50;;;;;;;18.42;12.15;;;7.50;99.90;;;;;;5074447;28;20098;-65
2022/04/21 02:17:16;;;;;;;18.15;12.25;;;7.50;99.90;;;;;;5073685;28;20056;-62
2022/04/21 02:19:42;;;;;;;17.92;11.75;;;7.40;99.90;;;;;;5073229;28;20040;-63
2022/04/21 02:22:07;;;;;;;15.63;11.07;;;7.40;99.90;;;;;;5074300;28;20053;-63
2022/04/21 02:24:33;;;;;;;15.70;12.05;;;7.50;99.90;;;;;;5074447;28;20176;-62
2022/04/21 02:26:59;;;;;;;16.50;12.07;;;7.40;99.90;;;;;;5072977;28;20127;-62
2022/04/21 02:29:24;;;;;;;15.18;12.05;;;7.40;99.90;;;;;;5073281;28;20067;-63
2022/04/21 02:31:50;;;;;;;15.70;12.00;;;7.40;99.90;;;;;;5056666;28;20045;-67
2022/04/21 02:34:16;;;;;;;15.85;11.32;;;7.40;99.90;;;;;;5074193;28;20070;-63
2022/04/21 02:36:41;;;;;;;18.52;11.98;;;7.40;99.90;;;;;;5074365;28;20513;-63
2022/04/21 02:39:07;;;;;;;15.75;11.75;;;7.30;99.90;;;;;;5073783;28;20044;-63
2022/04/21 02:41:33;;;;;;;18.27;11.23;;;7.30;99.90;;;;;;5073871;28;20491;-62
2022/04/21 02:43:59;;;;;;;18.50;11.88;;;7.20;99.90;;;;;;5073799;28;20094;-65
2022/04/21 02:46:28;;;;;;;18.23;11.88;;;7.20;99.90;;;;;;5073994;28;20044;-62
2022/04/21 02:49:00;;;;;;;19.75;11.55;;;7.20;99.90;;;;;;5073729;28;20090;-63
2022/04/21 02:51:26;;;;;;;16.95;11.85;;;7.10;99.90;;;;;;5073828;28;20517;-63
2022/04/21 02:59:20;;;;;;;17.67;12.25;;;7.00;99.90;;;;;;5072958;28;20352;-63
2022/04/21 03:01:45;;;;;;;16.48;11.68;;;7.00;99.90;;;;;;5072800;28;20411;-63
2022/04/21 03:04:11;;;;;;;17.10;11.10;;;7.00;99.90;;;;;;5073473;28;20482;-64
2022/04/21 03:06:37;;;;;;;16.85;12.13;;;6.90;99.90;;;;;;5072739;28;20048;-62
2022/04/21 03:09:02;;;;;;;15.90;11.88;;;7.00;99.90;;;;;;5073606;28;20051;-62
2022/04/21 03:11:29;;;;;;;14.52;11.10;;;7.00;99.90;;;;;;5073705;28;20049;-63
2022/04/21 03:13:55;;;;;;;15.35;11.98;;;6.90;99.90;;;;;;5072643;28;20048;-63
2022/04/21 03:16:20;;;;;;;15.52;11.77;;;6.90;99.90;;;;;;5072330;28;20052;-64
2022/04/21 03:18:46;;;;;;;16.73;12.20;;;6.90;99.90;;;;;;5072458;28;20381;-63
2022/04/21 03:26:40;;;;;;;17.52;11.90;;;6.80;99.90;;;;;;5072369;28;20048;-62
2022/04/21 03:29:06;;;;;;;17.65;11.43;;;6.70;99.90;;;;;;5072104;28;20041;-62
2022/04/21 03:31:32;;;;;;;15.38;11.35;;;6.70;99.90;;;;;;5073010;28;20167;-63
2022/04/21 03:33:57;;;;;;;17.30;11.52;;;6.70;99.90;;;;;;5072074;28;20482;-63
2022/04/21 03:36:23;;;;;;;15.10;10.82;;;6.80;99.90;;;;;;5072734;28;20079;-63
2022/04/21 03:38:49;;;;;;;15.82;10.38;;;6.80;99.90;;;;;;5072654;28;20082;-63
2022/04/21 03:41:15;;;;;;;16.92;10.93;;;6.70;99.90;;;;;;5072940;28;20474;-62
2022/04/21 03:43:40;;;;;;;14.38;10.82;;;6.70;99.90;;;;;;5073026;28;20052;-63
2022/04/21 03:46:06;;;;;;;14.27;10.63;;;6.60;99.90;;;;;;5072797;28;20263;-65
2022/04/21 03:48:32;;;;;;;14.85;11.27;;;6.70;99.90;;;;;;5073002;28;20372;-62
2022/04/21 03:50:57;;;;;;;16.38;11.23;;;6.60;99.90;;;;;;5072988;28;20102;-62
2022/04/21 03:53:23;;;;;;;15.68;10.77;;;6.60;99.90;;;;;;5072706;28;20039;-63
2022/04/21 03:55:49;;;;;;;15.32;9.88;;;6.60;99.90;;;;;;5071836;28;20045;-63
2022/04/21 03:58:15;;;;;;;14.13;9.77;;;6.50;99.90;;;;;;5072587;28;20135;-63
2022/04/21 04:00:40;;;;;;;15.35;10.02;;;6.50;99.90;;;;;;5071652;28;20119;-63
2022/04/21 04:03:06;;;;;;;14.80;10.77;;;6.60;99.90;;;;;;5072308;28;20044;-62
2022/04/21 04:05:32;;;;;;;13.77;10.35;;;6.50;99.90;;;;;;5071617;28;20053;-63
2022/04/21 04:10:52;;;;;;;15.15;10.18;;;6.50;99.90;;;;;;5072633;28;20051;-63
2022/04/21 04:13:23;;;;;;;14.13;10.80;;;6.50;99.90;;;;;;5055894;28;20498;-63
2022/04/21 04:15:50;;;;;;;13.10;10.23;;;6.50;99.90;;;;;;5072434;28;20097;-63
2022/04/21 04:18:16;;;;;;;15.30;9.93;;;6.50;99.90;;;;;;5070626;28;20059;-63
2022/04/21 04:20:42;;;;;;;12.82;9.73;;;6.50;99.90;;;;;;5072300;28;20414;-63
2022/04/21 04:23:08;;;;;;;14.35;9.68;;;6.50;99.90;;;;;;5070783;28;20452;-64
2022/04/21 04:25:35;;;;;;;14.70;10.50;;;6.60;99.90;;;;;;5071729;28;20044;-64
2022/04/21 04:28:03;;;;;;;16.23;9.95;;;6.50;99.90;;;;;;5070945;28;20137;-63
2022/04/21 04:30:29;;;;;;;14.02;9.75;;;6.50;99.90;;;;;;5071609;28;20174;-64
2022/04/21 04:32:55;;;;;;;13.75;9.80;;;6.50;99.90;;;;;;5072197;28;20047;-62
2022/04/21 04:35:21;;;;;;;14.52;10.02;;;6.60;99.90;;;;;;5071566;28;20048;-63
2022/04/21 04:37:47;;;;;;;14.80;9.43;;;6.50;99.90;;;;;;5070712;28;20080;-63
2022/04/21 04:40:13;;;;;;;16.40;10.48;;;7.20;99.90;;;;;;5069803;28;20095;-63
2022/04/21 04:42:39;;;;;;;13.80;10.00;;;6.50;99.90;;;;;;5072131;28;20105;-63
2022/04/21 04:47:49;;;;;;;15.23;10.52;;;6.50;99.90;;;;;;5071925;28;20237;-62
2022/04/21 04:50:14;;;;;;;11.88;8.82;;;6.50;99.90;;;;;;5070491;28;20568;-63
2022/04/21 04:52:40;;;;;;;12.88;9.60;;;6.50;99.90;;;;;;5070582;28;20037;-63
2022/04/21 04:55:10;;;;;;;13.32;10.02;;;6.60;99.90;;;;;;5071790;28;20050;-62
2022/04/21 04:57:36;;;;;;;12.20;9.07;;;6.50;99.90;;;;;;5071767;28;20044;-65
2022/04/21 05:00:04;;;;;;;14.32;9.65;;;6.50;99.90;;;;;;5071691;28;20139;-63
2022/04/21 05:02:29;;;;;;;14.73;9.15;;;6.60;99.90;;;;;;5070000;28;20440;-62
2022/04/21 05:04:55;;;;;;;12.93;9.57;;;6.60;99.90;;;;;;5070564;28;20059;-63
2022/04/21 05:07:21;;;;;;;12.88;9.60;;;6.60;99.90;;;;;;5071227;28;20474;-61
2022/04/21 05:09:47;;;;;;;12.63;8.80;;;6.70;99.90;;;;;;5070631;28;20131;-62
2022/04/21 05:12:12;;;;;;;12.07;9.05;;;6.70;99.90;;;;;;5069920;28;20040;-63
2022/04/21 05:14:38;;;;;;;12.43;8.82;;;6.80;99.90;;;;;;5070262;28;20446;-63
2022/04/21 05:17:04;;;;;;;14.60;8.98;;;6.80;99.90;;;;;;5071439;28;20401;-63
2022/04/21 05:19:30;;;;;;;11.20;9.05;;;6.90;99.90;;;;;;5071036;28;20227;-63
2022/04/21 05:22:02;;;;;;;12.07;8.80;;;7.00;99.90;;;;;;5071529;28;20048;-63
2022/04/21 05:24:31;;;;;;;12.98;9.32;;;7.10;99.90;;;;;;5069793;28;20113;-63
2022/04/21 05:26:57;;;;;;;11.45;8.77;;;7.30;99.90;;;;;;5071308;28;20049;-63
2022/04/21 05:32:07;;;;;;;9.70;7.70;;;8.40;99.90;;;;;;5071187;28;20082;-64
2022/04/21 05:34:33;;;;;;;11.98;8.02;;;9.40;99.90;;;;;;5069676;28;20045;-64
2022/04/21 05:37:01;;;;;;;13.07;8.20;;;10.40;99.90;;;;;;5070803;28;20124;-63
2022/04/21 05:39:28;;;;;;;10.40;7.88;;;11.30;99.90;;;;;;5070123;28;20128;-64
2022/04/21 05:41:55;;;;;;;9.55;6.85;;;12.20;99.90;;;;;;5070905;28;20091;-64
2022/04/21 05:44:21;;;;;;;9.57;7.47;;;12.90;99.90;;;;;;5069197;28;20129;-64
2022/04/21 05:46:47;;;;;;;12.75;8.02;;;13.60;99.90;;;;;;5053481;28;20049;-63
2022/04/21 05:49:13;;;;;;;10.30;7.95;;;14.10;99.90;;;;;;5070961;28;20119;-63
2022/04/21 05:51:41;;;;;;;8.65;7.32;;;14.40;99.90;;;;;;5053365;28;20056;-63
2022/04/21 05:54:07;;;;;;;10.43;7.50;;;14.70;99.90;;;;;;5070533;28;20044;-63
2022/04/21 05:56:33;;;;;;;10.65;7.13;;;15.10;99.90;;;;;;5070633;28;20048;-63
2022/04/21 05:59:00;;;;;;;10.30;6.90;;;15.60;99.90;;;;;;5071061;28;20127;-63
2022/04/21 06:01:26;;;;;;;8.35;7.00;;;15.80;99.80;;;;;;5070665;28;20045;-63
2022/04/21 06:03:52;;;;;;;9.13;7.15;;;16.00;98.50;;;;;;5069438;28;20067;-62
2022/04/21 06:06:18;;;;;;;9.77;7.80;;;16.20;99.90;;;;;;5069243;28;20074;-62
2022/04/21 06:08:44;;;;;;;9.77;6.53;;;16.20;97.50;;;;;;5070643;28;20049;-63
2022/04/21 06:11:13;;;;;;;11.07;7.30;;;16.50;99.40;;;;;;5070568;28;20064;-63
2022/04/21 06:13:41;;;;;;;8.73;6.47;;;16.70;95.50;;;;;;5052559;28;20124;-65
2022/04/21 06:16:07;;;;;;;9.18;6.97;;;17.00;97.90;;;;;;5052455;28;20045;-63
2022/04/21 06:18:33;;;;;;;11.48;6.70;;;17.10;97.30;;;;;;5070407;28;20056;-63
2022/04/21 06:21:00;;;;;;;11.15;6.90;;;17.40;97.20;;;;;;5070973;28;20055;-64
2022/04/21 06:23:26;;;;;;;9.75;6.63;;;17.80;96.50;;;;;;5070298;28;20045;-64
2022/04/21 06:25:58;;;;;;;10.30;6.55;;;18.30;93.30;;;;;;5070757;28;20110;-63
2022/04/21 06:28:27;;;;;;;8.63;6.30;;;18.50;92.30;;;;;;5070440;28;20048;-63
2022/04/21 06:30:54;;;;;;;8.27;6.30;;;19.10;95.00;;;;;;5072133;28;20127;-64
2022/04/21 06:33:20;;;;;;;8.70;6.28;;;19.40;92.60;;;;;;5072287;28;20044;-65
2022/04/21 06:35:46;;;;;;;7.43;5.35;;;19.60;90.90;;;;;;5073903;28;20128;-64
2022/04/21 06:38:12;;;;;;;7.55;5.60;;;20.00;91.40;;;;;;5055796;28;20059;-65
2022/04/21 06:40:38;;;;;;;6.50;5.53;;;20.10;90.60;;;;;;5073449;28;20067;-64
2022/04/21 06:48:01;;;;;;;6.85;5.32;;;20.30;87.30;;;;;;5072790;28;20040;-63
2022/04/21 06:48:36;;;;;;;6.85;4.68;;;20.60;86.20;;;;;;5073510;28;20044;-64
2022/04/21 06:51:02;;;;;;;6.30;4.78;;;20.60;86.90;;;;;;5074014;28;20055;-64
2022/04/21 06:53:29;;;;;;;6.80;5.20;;;20.80;84.60;;;;;;5073321;28;20174;-64
2022/04/21 06:55:55;;;;;;;7.32;5.07;;;20.90;83.10;;;;;;5072646;28;20123;-65
2022/04/21 06:58:22;;;;;;;6.60;4.80;;;20.90;80.90;;;;;;5072627;28;20056;-65
2022/04/21 07:00:48;;;;;;;5.97;4.80;;;20.70;81.90;;;;;;5072996;28;20584;-63
2022/04/21 07:03:14;;;;;;;5.95;4.70;;;20.90;81.50;;;;;;5073557;28;20123;-63
2022/04/21 07:05:39;;;;;;;5.97;4.55;;;21.00;81.40;;;;;;5073235;28;20213;-64
2022/04/21 07:08:07;;;;;;;6.38;4.55;;;21.10;77.80;;;;;;5072412;28;20084;-65
2022/04/21 07:10:33;;;;;;;7.82;4.20;;;21.40;78.40;;;;;;5071755;28;20137;-64
2022/04/21 07:12:59;;;;;;;9.65;4.25;;;21.40;76.90;;;;;;5072245;28;20117;-63
2022/04/21 07:15:25;;;;;;;8.43;4.43;;;21.40;74.10;;;;;;5071857;28;20056;-67
2022/04/21 07:17:52;;;;;;;5.75;4.18;;;21.30;74.00;;;;;;5072842;28;20049;-64
2022/04/21 07:20:18;;;;;;;5.85;3.90;;;21.60;76.50;;;;;;5071983;28;20090;-61
2022/04/21 07:22:43;;;;;;;5.88;3.72;;;21.50;74.50;;;;;;5071212;28;20045;-62
2022/04/21 07:25:09;;;;;;;5.75;4.28;;;21.50;73.60;;;;;;5072907;28;20041;-63
2022/04/21 07:27:37;;;;;;;6.32;3.88;;;21.40;74.00;;;;;;5071183;28;20112;-65
2022/04/21 07:30:04;;;;;;;7.25;4.60;;;21.40;73.90;;;;;;5073176;28;20045;-62
2022/04/21 07:32:30;;;;;;;6.60;4.88;;;21.60;72.80;;;;;;5071332;28;20094;-64
2022/04/21 07:34:55;;;;;;;8.57;5.93;;;21.60;72.20;;;;;;5073034;28;20048;-62
2022/04/21 07:37:21;;;;;;;8.90;5.82;;;21.40;70.20;;;;;;5073232;28;20139;-63
2022/04/21 07:39:47;;;;;;;10.27;6.65;;;21.30;69.80;;;;;;5071816;28;20053;-62
2022/04/21 07:42:13;;;;;;;9.20;6.03;;;21.40;70.30;;;;;;5070644;28;20098;-67
2022/04/21 07:44:39;;;;;;;7.55;5.22;;;21.50;69.40;;;;;;5072475;28;20041;-61
2022/04/21 07:47:06;;;;;;;7.35;5.00;;;21.80;69.70;;;;;;5072797;28;20052;-62
2022/04/21 07:49:48;;;;;;;5.93;4.30;;;22.10;67.80;;;;;;5070951;28;20089;-71
2022/04/21 07:55:18;;;;;;;6.78;4.05;;;22.50;67.30;;;;;;5072487;28;20102;-63
2022/04/21 07:57:46;;;;;;;6.50;3.97;;;22.60;66.40;;;;;;5072049;28;20098;-63
2022/04/21 08:00:14;;;;;;;4.65;3.38;;;22.60;66.20;;;;;;5072590;28;20048;-64
2022/04/21 08:02:41;;;;;;;5.03;3.90;;;22.80;66.30;;;;;;5072011;28;20067;-64
2022/04/21 08:05:08;;;;;;;5.43;3.25;;;23.20;66.30;;;;;;5072436;28;20100;-65
2022/04/21 08:07:36;;;;;;;5.43;3.50;;;23.60;65.60;;;;;;5037744;28;20098;-65
2022/04/21 08:10:07;;;;;;;5.82;3.05;;;23.70;63.80;;;;;;5071296;28;20052;-63
2022/04/21 08:12:47;;;;;;;4.90;2.63;;;23.90;62.70;;;;;;5072127;28;20055;-66
2022/04/21 08:15:27;;;;;;;5.38;2.70;;;24.00;61.60;;;;;;5070893;28;20526;-64
2022/04/21 08:17:55;;;;;;;4.45;2.33;;;23.70;61.40;;;;;;5072095;28;20159;-64
2022/04/21 08:20:22;;;;;;;3.70;2.38;;;23.40;60.10;;;;;;5072256;28;20551;-61
2022/04/21 08:22:48;;;;;;;4.70;2.30;;;23.20;61.80;;;;;;5071668;28;20087;-66
2022/04/21 08:33:27;;;;;;;3.55;2.33;;;23.30;59.70;;;;;;5071195;28;20047;-63
2022/04/21 08:35:58;;;;;;;3.38;2.20;;;23.10;60.60;;;;;;5071378;28;20048;-67
2022/04/21 08:38:28;;;;;;;3.53;2.40;;;23.20;61.70;;;;;;5071697;28;20123;-65
2022/04/21 08:40:59;;;;;;;5.20;2.80;;;23.00;60.00;;;;;;5071237;28;20053;-63
2022/04/21 08:43:27;;;;;;;3.22;2.40;;;22.90;60.90;;;;;;5071570;28;20052;-62
2022/04/21 08:45:54;;;;;;;5.25;2.40;;;23.00;61.00;;;;;;5071120;28;20045;-64
2022/04/21 08:48:24;;;;;;;4.22;2.63;;;22.80;61.40;;;;;;5069962;28;20057;-64
2022/04/21 08:50:51;;;;;;;3.75;2.55;;;22.90;61.70;;;;;;5069726;28;20048;-65
2022/04/21 08:53:20;;;;;;;3.85;2.63;;;22.80;61.30;;;;;;5071185;28;20076;-64
2022/04/21 08:55:49;;;;;;;4.40;2.60;;;22.60;61.20;;;;;;5069881;28;20049;-64
2022/04/21 08:58:14;;;;;;;4.18;2.78;;;22.40;61.70;;;;;;5071550;28;20410;-64
2022/04/21 09:00:42;;;;;;;3.88;2.72;;;22.30;61.80;;;;;;5053102;28;20147;-68
2022/04/21 09:03:08;;;;;;;5.97;2.92;;;22.50;61.90;;;;;;5071072;28;20406;-63
2022/04/21 09:05:34;;;;;;;5.90;2.80;;;22.30;61.80;;;;;;5071462;28;20186;-64
2022/04/21 09:08:01;;;;;;;4.63;2.72;;;22.20;62.60;;;;;;5069403;28;20098;-64
2022/04/21 09:10:32;;;;;;;4.65;2.83;;;22.50;62.90;;;;;;5071479;28;20052;-63
2022/04/21 09:13:00;;;;;;;4.72;3.10;;;23.10;62.50;;;;;;5070925;28;20040;-62
2022/04/21 09:15:31;;;;;;;7.00;2.70;;;23.10;62.30;;;;;;5070834;28;20520;-64
2022/04/21 09:18:02;;;;;;;4.55;2.67;;;23.30;61.60;;;;;;5070768;28;20036;-63
2022/04/21 09:20:30;;;;;;;3.80;2.90;;;23.50;61.70;;;;;;5070327;28;20051;-63
2022/04/21 09:23:01;;;;;;;3.72;2.88;;;23.30;62.10;;;;;;5070813;28;20036;-63
2022/04/21 09:25:30;;;;;;;5.38;2.70;;;23.20;61.00;;;;;;5071375;28;20051;-64
2022/04/21 09:27:56;;;;;;;4.55;2.70;;;23.20;61.40;;;;;;5069601;28;20051;-64
2022/04/21 09:30:23;;;;;;;3.97;2.53;;;23.00;61.80;;;;;;5071207;28;20091;-64
2022/04/21 09:32:57;;;;;;;4.25;2.50;;;22.80;61.70;;;;;;5069594;28;20144;-63
2022/04/21 09:35:28;;;;;;;4.82;2.47;;;22.20;62.20;;;;;;5069828;28;20426;-64
2022/04/21 09:37:56;;;;;;;4.05;2.45;;;21.50;62.80;;;;;;5069382;28;20066;-64
2022/04/21 09:40:29;;;;;;;3.95;2.30;;;21.00;62.90;;;;;;5069310;28;20059;-64
2022/04/21 09:43:00;;;;;;;5.30;2.78;;;20.50;64.00;;;;;;5069346;28;20084;-67
2022/04/21 09:48:24;;;;;;;5.90;3.00;;;19.80;64.90;;;;;;5070917;28;20131;-65
2022/04/21 09:50:53;;;;;;;3.83;2.55;;;19.30;65.60;;;;;;5069738;28;20521;-64
2022/04/21 09:53:23;;;;;;;7.18;3.08;;;19.20;66.20;;;;;;5069899;28;20401;-63
2022/04/21 09:55:52;;;;;;;7.90;2.83;;;19.10;67.10;;;;;;5070501;28;20045;-64
2022/04/21 09:58:18;;;;;;;7.72;3.35;;;19.00;67.30;;;;;;5070964;28;20048;-63
2022/04/21 10:00:45;;;;;;;5.00;2.70;;;18.90;67.10;;;;;;5036581;28;20135;-63
2022/04/21 10:03:11;;;;;;;8.82;3.25;;;18.60;68.40;;;;;;5052740;28;20040;-63
2022/04/21 10:05:41;;;;;;;10.57;3.00;;;18.50;68.90;;;;;;5072018;28;20083;-63
2022/04/21 10:08:10;;;;;;;4.72;2.90;;;18.50;69.00;;;;;;5074391;28;20118;-64
2022/04/21 10:10:37;;;;;;;7.28;2.90;;;18.40;68.90;;;;;;5073339;28;20051;-65
2022/04/21 10:13:05;;;;;;;7.15;3.33;;;18.40;68.70;;;;;;5072936;28;20556;-63
2022/04/21 10:15:30;;;;;;;3.83;2.92;;;18.10;69.70;;;;;;5073541;28;20438;-64
2022/04/21 10:17:56;;;;;;;5.10;2.83;;;18.10;69.80;;;;;;5072946;28;20079;-63
2022/04/21 10:20:28;;;;;;;5.68;3.20;;;18.20;69.50;;;;;;5073023;28;20040;-64
2022/04/21 10:22:56;;;;;;;4.55;2.60;;;18.20;70.20;;;;;;5072805;28;20145;-65
2022/04/21 10:25:36;;;;;;;7.20;2.80;;;18.20;70.20;;;;;;5073390;28;20409;-64
2022/04/21 10:28:21;;;;;;;6.25;3.00;;;18.20;69.60;;;;;;5072953;28;20061;-64
2022/04/21 10:30:48;;;;;;;5.70;2.70;;;18.10;69.40;;;;;;5074060;28;20124;-63
2022/04/21 10:33:14;;;;;;;4.15;2.65;;;18.00;70.80;;;;;;5073568;28;20532;-62
2022/04/21 10:35:40;;;;;;;5.57;2.70;;;17.90;70.40;;;;;;5073006;28;20048;-65
2022/04/21 10:38:14;;;;;;;4.93;2.88;;;17.90;70.10;;;;;;5073178;28;20083;-63
2022/04/21 10:41:03;;;;;;;4.65;2.72;;;17.90;71.50;;;;;;5074116;28;20096;-64
2022/04/21 10:43:47;;;;;;;4.90;2.60;;;18.00;70.60;;;;;;5073925;28;20055;-63
2022/04/21 10:46:21;;;;;;;;;;;18.00;71.30;;;;;;5073963;28;20186;-64
2022/04/21 10:48:47;;;;;;;8.95;3.00;;;18.10;71.00;;;;;;5072562;28;19920;-65
2022/04/21 10:57:12;;;;;;;5.45;3.03;;;18.10;71.30;;;;;;5072145;28;20572;-64
2022/04/21 10:57:33;;;;;;;5.45;2.70;;;18.10;71.60;;;;;;5072414;28;20474;-65
2022/04/21 11:00:05;;;;;;;6.22;2.60;;;18.20;71.00;;;;;;5072173;28;20047;-64
2022/04/21 11:02:41;;;;;;;5.68;2.97;;;18.10;71.30;;;;;;5073792;28;20075;-65
2022/04/21 11:05:22;;;;;;;5.43;2.50;;;18.10;70.90;;;;;;5073312;28;20084;-66
2022/04/21 11:07:53;;;;;;;8.10;3.20;;;18.00;71.30;;;;;;5056140;28;20062;-64
2022/04/21 11:10:26;;;;;;;4.80;2.38;;;18.00;70.70;;;;;;5055573;28;20044;-64
2022/04/21 11:12:53;;;;;;;8.38;2.55;;;17.90;70.50;;;;;;5072491;28;20147;-64
2022/04/21 11:15:45;;;;;;;3.95;2.30;;;17.80;70.60;;;;;;5072120;28;20126;-64
2022/04/21 11:18:15;;;;;;;5.53;2.70;;;17.90;71.20;;;;;;5060910;28;20083;-64
2022/04/21 11:20:49;;;;;;;5.00;2.40;;;17.90;70.60;;;;;;5072289;28;20053;-64
2022/04/21 11:23:30;;;;;;;6.45;2.72;;;17.80;71.10;;;;;;5073009;28;20048;-64
2022/04/21 11:26:07;;;;;;;4.38;2.70;;;17.90;70.50;;;;;;5073242;28;20422;-63
2022/04/21 11:28:32;;;;;;;4.20;2.50;;;17.80;70.20;;;;;;5055267;28;20131;-66
2022/04/21 11:31:00;;;;;;;5.63;2.72;;;17.70;70.80;;;;;;5073038;28;20079;-69
2022/04/21 11:33:27;;;;;;;5.78;2.92;;;17.60;70.80;;;;;;5073182;28;20044;-65
2022/04/21 11:36:07;;;;;;;4.57;2.45;;;17.60;71.30;;;;;;5055409;28;20417;-66
2022/04/21 11:38:41;;;;;;;7.95;3.53;;;17.70;71.40;;;;;;5071835;28;20056;-67
2022/04/21 11:41:09;;;;;;;4.47;2.90;;;17.60;71.10;;;;;;5071047;28;20071;-63
2022/04/21 11:43:36;;;;;;;5.57;2.70;;;17.60;71.00;;;;;;5071646;28;20051;-63
2022/04/21 11:46:09;;;;;;;6.75;3.20;;;17.40;71.50;;;;;;5054419;28;20052;-66
2022/04/21 11:48:37;;;;;;;4.82;3.00;;;17.50;71.40;;;;;;5071888;28;20057;-64
2022/04/21 11:51:04;;;;;;;7.60;3.50;;;17.50;71.70;;;;;;5072423;28;20390;-64
2022/04/21 11:53:40;;;;;;;4.20;2.90;;;17.50;72.30;;;;;;5071686;28;20131;-64
2022/04/21 11:56:08;;;;;;;4.35;2.70;;;17.50;73.40;;;;;;5072363;28;20048;-64
2022/04/21 11:58:35;;;;;;;5.80;2.70;;;17.60;72.50;;;;;;5072728;28;20050;-64
2022/04/21 12:06:57;;;;;;;4.82;3.17;;;17.70;72.40;;;;;;5072484;28;20113;-64
2022/04/21 12:09:33;;;;;;;4.97;3.17;;;17.70;73.00;;;;;;5072044;28;20051;-64
2022/04/21 12:12:00;;;;;;;4.78;2.70;;;17.70;71.70;;;;;;5072467;28;20044;-66
2022/04/21 12:14:27;;;;;;;4.60;2.72;;;17.60;71.90;;;;;;5070814;28;20100;-64
2022/04/21 12:17:00;;;;;;;5.50;3.22;;;17.80;72.70;;;;;;5070855;28;20124;-65
2022/04/21 12:19:40;;;;;;;9.35;3.63;;;17.80;73.20;;;;;;5070543;28;20052;-64
2022/04/21 12:22:32;;;;;;;3.75;2.63;;;17.80;73.30;;;;;;5070647;28;20059;-64
2022/04/21 12:24:58;;;;;;;5.97;3.25;;;17.80;72.20;;;;;;5072028;28;20468;-64
2022/04/21 12:27:34;;;;;;;7.40;3.20;;;17.70;72.50;;;;;;5070575;28;20042;-66
2022/04/21 12:30:03;;;;;;;4.93;3.50;;;17.80;72.80;;;;;;5054230;28;20049;-64
2022/04/21 12:32:30;;;;;;;4.22;3.28;;;17.80;72.60;;;;;;5071515;28;20048;-63
2022/04/21 12:35:03;;;;;;;7.95;3.50;;;17.60;72.40;;;;;;5069736;28;20040;-63
2022/04/21 12:37:34;;;;;;;6.32;3.75;;;17.60;73.00;;;;;;5070133;28;20548;-63
2022/04/21 12:40:02;;;;;;;4.53;3.40;;;17.50;73.80;;;;;;5071571;28;20056;-64
2022/04/21 12:42:28;;;;;;;7.93;3.55;;;17.40;74.50;;;;;;5070284;28;20074;-63
2022/04/21 12:44:55;;;;;;;6.32;3.30;;;17.40;74.90;;;;;;5071695;28;20082;-64
2022/04/21 12:47:22;;;;;;;4.65;3.15;;;17.40;74.40;;;;;;5071271;28;20135;-63
2022/04/21 12:49:53;;;;;;;6.18;3.00;;;17.40;74.70;;;;;;5071748;28;20083;-63
2022/04/21 12:52:45;;;;;;;4.93;3.33;;;17.40;75.20;;;;;;5070282;28;20056;-64
2022/04/21 12:55:22;;;;;;;8.05;3.13;;;17.40;75.40;;;;;;5069699;28;20052;-64
2022/04/21 12:58:13;;;;;;;5.05;3.58;;;17.30;75.60;;;;;;5069905;28;20445;-62
2022/04/21 13:00:41;;;;;;;9.02;4.32;;;17.40;76.60;;;;;;5071472;28;20053;-63
2022/04/21 13:03:10;;;;;;;11.25;3.80;;;17.50;76.40;;;;;;5070175;28;20588;-63
2022/04/21 13:05:51;;;;;;;10.48;4.68;;;17.40;77.00;;;;;;5070359;28;20049;-63
2022/04/21 13:08:20;;;;;;;11.07;4.07;;;17.40;78.50;;;;;;5071120;28;20047;-62
2022/04/21 13:10:47;;;;;;;4.72;3.50;;;17.50;78.00;;;;;;5069921;28;20560;-62
2022/04/21 13:13:12;;;;;;;7.05;3.78;;;17.50;77.30;;;;;;5053021;28;20048;-62
2022/04/21 13:15:38;;;;;;;6.45;4.07;;;17.40;77.30;;;;;;5071263;28;20123;-62
2022/04/21 13:18:04;;;;;;;8.20;3.75;;;17.40;79.60;;;;;;5070160;28;20086;-63
2022/04/21 13:23:14;;;;;;;5.85;3.33;;;17.50;77.70;;;;;;5070555;28;20149;-63
2022/04/21 13:25:39;;;;;;;5.38;3.70;;;17.50;76.90;;;;;;5069809;28;20083;-62
2022/04/21 13:28:05;;;;;;;8.00;4.10;;;17.40;78.40;;;;;;5052822;28;20453;-62
2022/04/21 13:30:31;;;;;;;5.88;3.65;;;17.40;79.20;;;;;;5069215;28;20059;-63
2022/04/21 13:35:41;;;;;;;8.57;3.97;;;17.30;79.60;;;;;;5070761;28;20059;-62
2022/04/21 13:38:07;;;;;;;7.15;4.57;;;17.30;80.10;;;;;;5070796;28;20048;-63
2022/04/21 13:40:33;;;;;;;7.20;4.22;;;17.20;80.50;;;;;;5069184;28;20077;-64
2022/04/21 13:42:59;;;;;;;6.55;3.97;;;17.10;80.70;;;;;;5070766;28;20490;-63
2022/04/21 13:45:25;;;;;;;6.75;3.97;;;17.00;81.20;;;;;;5064103;28;20513;-62